Time;durP1;ratioP1;P1;durP2;ratioP2;P2;SDS_P1;SDS_P2;PMS_P1;PMS_P2;Temp;Humidity;BMP_temperature;BMP_pressure;BME280_temperature;BME280_humidity;BME280_pressure;Samples;Min_cycle;Max_cycle;Signal;HPM_P1;HPM_P2
2022/09/07 00:01:22;;;;;;;7.83;3.33;;;14.70;74.30;;;;;;1898654;75;20969;-75
2022/09/07 00:03:56;;;;;;;5.10;3.40;;;14.70;74.50;;;;;;1898691;75;20969;-75
2022/09/07 00:06:25;;;;;;;5.87;3.95;;;14.70;75.10;;;;;;1898682;75;20988;-75
2022/09/07 00:08:54;;;;;;;5.87;3.75;;;14.70;75.40;;;;;;1898635;75;20973;-75
2022/09/07 00:11:23;;;;;;;7.12;3.98;;;14.70;75.40;;;;;;1898695;75;20965;-76
2022/09/07 00:13:52;;;;;;;5.70;3.72;;;14.80;75.20;;;;;;1898739;75;21005;-74
2022/09/07 00:16:23;;;;;;;5.42;3.90;;;14.70;73.10;;;;;;1898708;75;20961;-74
2022/09/07 00:18:55;;;;;;;7.87;4.00;;;14.50;74.20;;;;;;1898684;75;20977;-72
2022/09/07 00:21:24;;;;;;;4.75;3.75;;;14.40;75.20;;;;;;1897902;75;20953;-74
2022/09/07 00:23:54;;;;;;;5.58;3.22;;;14.40;75.90;;;;;;1898650;75;21013;-75
2022/09/07 00:26:25;;;;;;;5.45;3.77;;;14.50;75.70;;;;;;1898736;75;21431;-75
2022/09/07 00:28:56;;;;;;;5.80;3.87;;;14.50;74.80;;;;;;1898729;75;21441;-75
2022/09/07 00:31:26;;;;;;;6.90;3.55;;;14.40;73.90;;;;;;1898717;75;21427;-75
2022/09/07 00:33:58;;;;;;;5.22;3.87;;;14.20;74.80;;;;;;1898641;75;20957;-75
2022/09/07 00:36:27;;;;;;;6.72;3.90;;;14.30;75.80;;;;;;1898764;75;20997;-76
2022/09/07 00:38:56;;;;;;;6.58;3.52;;;14.30;76.20;;;;;;1898753;75;20969;-75
2022/09/07 00:41:25;;;;;;;6.03;3.42;;;14.30;76.50;;;;;;1898680;75;20974;-75
2022/09/07 00:43:57;;;;;;;7.20;3.42;;;14.40;76.80;;;;;;1898677;75;20945;-75
2022/09/07 00:46:28;;;;;;;5.62;3.60;;;14.50;76.70;;;;;;1898672;75;21489;-75
2022/09/07 00:49:03;;;;;;;5.35;4.00;;;14.50;76.60;;;;;;1898517;75;21109;-72
2022/09/07 00:51:50;;;;;;;5.53;3.87;;;14.50;76.10;;;;;;1898587;75;21066;-74
2022/09/07 00:54:21;;;;;;;9.95;4.05;;;14.40;74.40;;;;;;1898656;75;21008;-74
2022/09/07 00:56:55;;;;;;;10.30;3.65;;;14.30;75.30;;;;;;1898679;75;21067;-76
2022/09/07 00:59:26;;;;;;;8.28;3.67;;;14.30;76.10;;;;;;1898746;75;21404;-75
2022/09/07 01:01:55;;;;;;;6.53;3.75;;;14.30;76.60;;;;;;1898668;75;20957;-76
2022/09/07 01:04:25;;;;;;;5.35;3.50;;;14.40;76.40;;;;;;1898676;75;21505;-76
2022/09/07 01:06:55;;;;;;;10.93;4.92;;;14.40;75.70;;;;;;1898668;75;21031;-74
2022/09/07 01:09:26;;;;;;;7.70;4.42;;;14.30;75.10;;;;;;1898646;75;21407;-74
2022/09/07 01:11:57;;;;;;;6.22;3.75;;;14.20;75.70;;;;;;1898627;75;21110;-74
2022/09/07 01:14:32;;;;;;;8.90;4.28;;;14.10;75.90;;;;;;1898723;75;20953;-75
2022/09/07 01:17:09;;;;;;;5.92;3.75;;;14.10;76.30;;;;;;1898588;75;21052;-74
2022/09/07 01:20:03;;;;;;;6.37;4.28;;;14.20;76.60;;;;;;1898655;75;21039;-74
2022/09/07 01:22:54;;;;;;;10.05;4.50;;;14.20;76.50;;;;;;1898652;75;21455;-73
2022/09/07 01:25:47;;;;;;;7.87;5.00;;;14.30;76.50;;;;;;1898643;75;20965;-74
2022/09/07 01:28:25;;;;;;;7.95;4.33;;;14.30;76.20;;;;;;1895962;75;20977;-74
2022/09/07 01:31:11;;;;;;;5.37;3.62;;;14.30;75.70;;;;;;1898232;75;20993;-74
2022/09/07 01:33:55;;;;;;;8.53;3.95;;;14.20;74.40;;;;;;1869388;74;20969;-74
2022/09/07 01:36:35;;;;;;;8.25;4.28;;;13.90;75.50;;;;;;1896389;75;21376;-73
2022/09/07 01:39:05;;;;;;;8.60;4.00;;;13.80;76.80;;;;;;1898659;75;20938;-74
2022/09/07 01:41:49;;;;;;;5.83;3.80;;;13.80;77.40;;;;;;1898621;75;20984;-75
2022/09/07 01:44:23;;;;;;;6.20;3.85;;;13.90;77.20;;;;;;1898654;75;20953;-75
2022/09/07 01:47:03;;;;;;;6.83;5.00;;;13.90;76.70;;;;;;1898826;75;21380;-75
2022/09/07 01:49:52;;;;;;;6.10;4.25;;;13.80;77.00;;;;;;1895506;75;21134;-75
2022/09/07 01:52:27;;;;;;;7.83;3.52;;;13.80;77.50;;;;;;1879219;76;20989;-75
2022/09/07 01:54:58;;;;;;;9.40;3.90;;;13.80;77.80;;;;;;1892242;76;21001;-75
2022/09/07 01:57:30;;;;;;;9.53;3.98;;;13.90;78.00;;;;;;1892128;76;21447;-76
2022/09/07 02:00:06;;;;;;;6.33;3.85;;;14.00;77.90;;;;;;1891782;75;21055;-75
2022/09/07 02:02:42;;;;;;;7.83;4.10;;;14.00;77.80;;;;;;1890996;76;21058;-75
2022/09/07 02:05:14;;;;;;;6.97;3.72;;;14.10;77.60;;;;;;1884900;76;20981;-75
2022/09/07 02:07:57;;;;;;;6.10;3.83;;;14.10;77.40;;;;;;1892050;76;21431;-74
2022/09/07 02:10:35;;;;;;;5.22;3.60;;;14.00;77.50;;;;;;1854072;76;20973;-75
2022/09/07 02:13:09;;;;;;;6.00;3.77;;;14.00;77.80;;;;;;1891732;76;20981;-75
2022/09/07 02:15:47;;;;;;;6.60;4.15;;;13.90;77.00;;;;;;1892287;76;20954;-74
2022/09/07 02:18:16;;;;;;;9.38;3.83;;;13.80;77.90;;;;;;1891253;76;21416;-75
2022/09/07 02:20:47;;;;;;;8.75;4.10;;;13.80;78.30;;;;;;1892135;76;20974;-75
2022/09/07 02:23:22;;;;;;;5.70;4.45;;;13.80;78.60;;;;;;1892297;76;21458;-75
2022/09/07 02:26:02;;;;;;;7.67;4.00;;;13.80;78.30;;;;;;1892139;75;21021;-74
2022/09/07 02:28:33;;;;;;;6.58;4.25;;;13.90;78.10;;;;;;1892031;76;21047;-75
2022/09/07 02:31:02;;;;;;;5.95;4.22;;;13.90;77.70;;;;;;1891403;76;21360;-75
2022/09/07 02:33:31;;;;;;;9.68;4.83;;;13.80;78.00;;;;;;1892153;76;21031;-75
2022/09/07 02:36:03;;;;;;;8.23;4.42;;;13.80;78.10;;;;;;1892102;76;20965;-75
2022/09/07 02:38:33;;;;;;;8.08;4.78;;;13.80;78.10;;;;;;1892094;76;20953;-75
2022/09/07 02:41:03;;;;;;;14.07;4.67;;;13.80;77.90;;;;;;1892121;76;21465;-75
2022/09/07 02:43:33;;;;;;;5.30;4.47;;;13.80;78.10;;;;;;1892025;76;21031;-75
2022/09/07 02:46:16;;;;;;;7.90;4.33;;;13.80;78.50;;;;;;1892167;76;21360;-75
2022/09/07 02:48:48;;;;;;;7.42;4.37;;;13.90;78.90;;;;;;1891405;76;21053;-75
2022/09/07 02:51:42;;;;;;;6.47;4.67;;;13.90;78.90;;;;;;1892038;75;20997;-75
2022/09/07 02:54:17;;;;;;;8.70;4.58;;;13.90;79.30;;;;;;1853584;76;20981;-75
2022/09/07 02:57:00;;;;;;;11.85;4.60;;;13.90;79.50;;;;;;1892328;76;21010;-75
2022/09/07 02:59:40;;;;;;;9.25;5.80;;;14.00;79.40;;;;;;1892171;76;20973;-75
2022/09/07 03:02:21;;;;;;;11.68;4.75;;;14.00;79.30;;;;;;1890105;76;21064;-72
2022/09/07 03:05:05;;;;;;;8.53;4.53;;;14.00;79.20;;;;;;1891926;73;21470;-75
2022/09/07 03:07:36;;;;;;;9.28;4.97;;;13.90;79.00;;;;;;1892251;76;20986;-74
2022/09/07 03:10:07;;;;;;;7.97;5.17;;;13.90;79.50;;;;;;1892145;76;21489;-75
2022/09/07 03:12:48;;;;;;;63.05;9.83;;;13.90;78.90;;;;;;1892217;76;21051;-75
2022/09/07 03:15:20;;;;;;;151.45;16.37;;;13.80;79.40;;;;;;1892165;76;21043;-72
2022/09/07 03:17:49;;;;;;;451.27;43.68;;;13.80;79.80;;;;;;1892223;76;20961;-74
2022/09/07 03:20:19;;;;;;;213.55;22.40;;;13.80;79.70;;;;;;1892126;76;21376;-72
2022/09/07 03:22:49;;;;;;;12.37;5.17;;;13.80;79.70;;;;;;1892172;76;20961;-74
2022/09/07 03:25:18;;;;;;;8.45;5.45;;;13.80;79.60;;;;;;1892248;76;21420;-74
2022/09/07 03:27:47;;;;;;;7.83;5.35;;;13.90;80.00;;;;;;1892223;76;20993;-74
2022/09/07 03:30:16;;;;;;;7.85;5.20;;;13.90;79.90;;;;;;1892094;76;20985;-76
2022/09/07 03:32:46;;;;;;;9.13;5.28;;;13.90;79.30;;;;;;1892132;76;21133;-74
2022/09/07 03:35:15;;;;;;;9.68;5.45;;;13.80;79.10;;;;;;1892078;76;21486;-72
2022/09/07 03:37:44;;;;;;;7.30;5.15;;;13.80;79.50;;;;;;1892139;76;21059;-75
2022/09/07 03:40:14;;;;;;;9.58;4.95;;;13.90;79.50;;;;;;1892111;76;21027;-75
2022/09/07 03:42:45;;;;;;;10.85;5.40;;;13.90;79.20;;;;;;1892312;76;20973;-71
2022/09/07 03:45:13;;;;;;;6.58;4.78;;;13.90;79.20;;;;;;1892184;76;21442;-74
2022/09/07 03:47:42;;;;;;;6.83;4.90;;;14.00;79.50;;;;;;1892151;76;20953;-74
2022/09/07 03:50:11;;;;;;;7.03;4.87;;;14.00;79.30;;;;;;1893735;75;21074;-73
2022/09/07 03:52:40;;;;;;;10.25;5.10;;;14.10;79.40;;;;;;1898751;75;21475;-73
2022/09/07 03:55:09;;;;;;;8.88;5.12;;;14.20;79.70;;;;;;1898702;75;20973;-73
2022/09/07 03:57:39;;;;;;;10.93;5.80;;;14.30;79.50;;;;;;1898714;75;20985;-73
2022/09/07 04:00:08;;;;;;;8.60;5.33;;;14.40;79.40;;;;;;1898625;75;21073;-73
2022/09/07 04:02:43;;;;;;;13.48;5.70;;;14.50;79.20;;;;;;1898738;75;21387;-74
2022/09/07 04:05:12;;;;;;;35.48;8.73;;;14.60;79.10;;;;;;1898875;75;21056;-75
2022/09/07 04:07:41;;;;;;;10.28;6.00;;;14.70;78.10;;;;;;1898670;75;20985;-71
2022/09/07 04:10:10;;;;;;;11.95;5.50;;;14.70;78.20;;;;;;1898666;75;20961;-73
2022/09/07 04:12:39;;;;;;;12.88;6.03;;;14.80;78.40;;;;;;1898629;75;20984;-73
2022/09/07 04:15:08;;;;;;;12.05;6.05;;;14.90;78.60;;;;;;1898643;75;20957;-72
2022/09/07 04:17:38;;;;;;;17.30;8.75;;;15.00;78.30;;;;;;1898640;75;20992;-67
2022/09/07 04:20:08;;;;;;;14.98;8.68;;;15.10;78.00;;;;;;1898617;75;21051;-72
2022/09/07 04:22:37;;;;;;;21.75;9.10;;;15.20;78.00;;;;;;1898627;75;21043;-68
2022/09/07 04:25:06;;;;;;;23.07;10.80;;;15.30;77.80;;;;;;1898603;75;20985;-73
2022/09/07 04:27:35;;;;;;;12.65;7.05;;;15.40;77.70;;;;;;1898706;75;21760;-72
2022/09/07 04:30:04;;;;;;;13.98;9.20;;;15.50;77.30;;;;;;1898605;75;21043;-72
2022/09/07 04:32:33;;;;;;;12.75;7.92;;;15.60;76.80;;;;;;1898588;75;21017;-72
2022/09/07 04:35:02;;;;;;;19.60;7.53;;;15.60;76.70;;;;;;1898624;75;20989;-72
2022/09/07 04:37:31;;;;;;;12.60;7.33;;;15.60;76.90;;;;;;1898628;75;21042;-71
2022/09/07 04:40:00;;;;;;;15.63;7.47;;;15.70;76.60;;;;;;1898587;75;20961;-72
2022/09/07 04:42:30;;;;;;;9.90;6.53;;;15.70;76.20;;;;;;1898589;75;21420;-73
2022/09/07 04:44:59;;;;;;;16.12;6.95;;;15.80;76.10;;;;;;1898595;75;20980;-73
2022/09/07 04:47:29;;;;;;;12.68;6.97;;;15.80;75.90;;;;;;1898710;74;21036;-73
2022/09/07 04:49:58;;;;;;;15.23;7.75;;;15.90;75.70;;;;;;1898562;75;21094;-73
2022/09/07 04:52:27;;;;;;;13.20;7.05;;;16.00;75.80;;;;;;1898554;75;21086;-72
2022/09/07 04:54:56;;;;;;;8.85;6.10;;;16.10;75.70;;;;;;1898654;75;20992;-73
2022/09/07 04:57:25;;;;;;;18.48;7.17;;;16.20;75.40;;;;;;1898674;75;21051;-75
2022/09/07 04:59:54;;;;;;;11.60;6.15;;;16.20;75.50;;;;;;1898532;75;20965;-73
2022/09/07 05:02:23;;;;;;;11.43;6.42;;;16.30;75.40;;;;;;1898507;75;20977;-73
2022/09/07 05:04:52;;;;;;;12.95;6.80;;;16.40;75.50;;;;;;1898502;75;21021;-73
2022/09/07 05:07:21;;;;;;;14.33;6.45;;;16.60;75.10;;;;;;1898685;75;21375;-73
2022/09/07 05:09:50;;;;;;;11.10;5.92;;;16.60;74.70;;;;;;1898527;75;20953;-73
2022/09/07 05:12:19;;;;;;;9.78;6.30;;;16.70;74.70;;;;;;1898527;75;20989;-71
2022/09/07 05:14:48;;;;;;;10.35;7.08;;;16.80;74.30;;;;;;1898604;75;21502;-73
2022/09/07 05:17:18;;;;;;;10.20;6.20;;;16.90;73.50;;;;;;1898667;75;21043;-74
2022/09/07 05:19:48;;;;;;;11.73;6.78;;;16.90;73.30;;;;;;1898647;75;21042;-73
2022/09/07 05:22:18;;;;;;;12.13;8.35;;;17.00;72.60;;;;;;1898682;75;20969;-73
2022/09/07 05:24:48;;;;;;;20.10;9.48;;;17.00;71.80;;;;;;1898665;75;20953;-72
2022/09/07 05:27:17;;;;;;;22.60;12.13;;;17.10;71.00;;;;;;1898594;75;21038;-73
2022/09/07 05:29:46;;;;;;;25.02;12.37;;;17.00;71.70;;;;;;1898736;75;20981;-72
2022/09/07 05:32:14;;;;;;;17.98;11.75;;;17.10;71.60;;;;;;1898542;75;21424;-72
2022/09/07 05:34:43;;;;;;;22.75;13.25;;;17.20;69.50;;;;;;1898616;75;20993;-72
2022/09/07 05:37:12;;;;;;;28.25;12.60;;;17.10;69.60;;;;;;1898537;75;21025;-72
2022/09/07 05:39:41;;;;;;;31.48;16.65;;;17.20;69.50;;;;;;1898471;75;20996;-71
2022/09/07 05:42:10;;;;;;;31.80;15.68;;;17.10;68.50;;;;;;1898536;75;21070;-72
2022/09/07 05:44:39;;;;;;;27.10;14.43;;;17.20;69.30;;;;;;1898459;75;20993;-72
2022/09/07 05:47:08;;;;;;;20.45;12.15;;;17.30;68.80;;;;;;1898602;75;20980;-73
2022/09/07 05:49:37;;;;;;;19.70;11.25;;;17.30;68.50;;;;;;1898379;75;20985;-72
2022/09/07 05:52:06;;;;;;;14.98;8.63;;;17.30;67.50;;;;;;1895186;75;21036;-73
2022/09/07 05:54:35;;;;;;;16.95;8.50;;;17.30;67.90;;;;;;1891950;76;21000;-72
2022/09/07 05:57:04;;;;;;;14.70;8.85;;;17.40;67.60;;;;;;1891911;76;21427;-73
2022/09/07 05:59:33;;;;;;;13.72;8.40;;;17.30;67.10;;;;;;1891883;76;20941;-69
2022/09/07 06:02:02;;;;;;;20.68;9.75;;;17.30;68.10;;;;;;1891844;76;21039;-71
2022/09/07 06:04:32;;;;;;;18.40;8.55;;;17.40;66.90;;;;;;1891814;76;21497;-71
2022/09/07 06:07:00;;;;;;;14.73;8.33;;;17.50;67.00;;;;;;1891844;76;20977;-72
2022/09/07 06:09:30;;;;;;;11.55;8.18;;;17.50;67.00;;;;;;1891918;76;21075;-71
2022/09/07 06:11:58;;;;;;;15.80;7.03;;;17.60;66.20;;;;;;1891819;76;21031;-71
2022/09/07 06:14:27;;;;;;;13.68;8.28;;;17.60;65.80;;;;;;1891774;76;20953;-72
2022/09/07 06:16:56;;;;;;;15.83;8.10;;;17.60;66.30;;;;;;1891887;76;20997;-72
2022/09/07 06:19:25;;;;;;;13.78;7.87;;;17.70;65.80;;;;;;1891886;76;20981;-72
2022/09/07 06:21:54;;;;;;;11.12;6.97;;;17.70;64.40;;;;;;1891808;76;20993;-72
2022/09/07 06:24:23;;;;;;;12.20;7.12;;;17.80;65.60;;;;;;1891828;76;21462;-72
2022/09/07 06:26:52;;;;;;;13.50;6.70;;;17.80;64.50;;;;;;1891904;76;20965;-72
2022/09/07 06:29:21;;;;;;;10.38;6.10;;;17.90;63.80;;;;;;1891814;76;20997;-71
2022/09/07 06:31:50;;;;;;;8.05;4.40;;;18.00;62.80;;;;;;1891852;76;21511;-73
2022/09/07 06:34:19;;;;;;;8.23;4.72;;;18.00;61.80;;;;;;1891932;76;20973;-73
2022/09/07 06:36:48;;;;;;;8.38;4.80;;;18.00;61.00;;;;;;1891876;76;20977;-74
2022/09/07 06:39:17;;;;;;;6.80;4.80;;;18.00;61.20;;;;;;1892035;76;21031;-73
2022/09/07 06:41:46;;;;;;;6.85;4.62;;;18.10;60.20;;;;;;1891906;76;20990;-74
2022/09/07 06:44:16;;;;;;;6.22;4.60;;;18.10;59.30;;;;;;1891292;75;21392;-73
2022/09/07 06:46:45;;;;;;;6.03;4.20;;;18.10;59.50;;;;;;1891869;76;20969;-68
2022/09/07 06:49:14;;;;;;;11.90;5.30;;;18.20;59.20;;;;;;1891882;76;20981;-62
2022/09/07 06:51:43;;;;;;;10.90;4.72;;;18.30;61.00;;;;;;1892270;75;21047;-64
2022/09/07 06:54:12;;;;;;;8.55;3.60;;;18.40;59.90;;;;;;1901224;75;21001;-65
2022/09/07 06:56:41;;;;;;;6.00;4.12;;;18.50;58.90;;;;;;1901250;75;21443;-65
2022/09/07 06:59:10;;;;;;;9.00;5.08;;;18.60;58.40;;;;;;1901230;75;21062;-65
2022/09/07 07:01:39;;;;;;;6.08;3.47;;;18.60;58.80;;;;;;1901231;75;21050;-65
2022/09/07 07:04:08;;;;;;;5.58;3.00;;;18.60;55.90;;;;;;1901211;75;21416;-65
2022/09/07 07:06:38;;;;;;;10.13;4.20;;;18.50;56.10;;;;;;1901295;75;20957;-65
2022/09/07 07:09:08;;;;;;;15.25;4.50;;;18.60;55.80;;;;;;1901355;75;20992;-65
2022/09/07 07:11:37;;;;;;;6.80;3.40;;;18.50;56.90;;;;;;1901218;75;20989;-65
2022/09/07 07:14:06;;;;;;;5.25;4.10;;;18.60;54.90;;;;;;1901137;75;21020;-65
2022/09/07 07:16:36;;;;;;;12.75;4.83;;;18.60;54.60;;;;;;1901292;75;20981;-65
2022/09/07 07:19:05;;;;;;;9.55;5.55;;;18.60;54.50;;;;;;1901163;75;21059;-65
2022/09/07 07:21:34;;;;;;;7.28;3.65;;;18.60;54.90;;;;;;1901229;75;20977;-66
2022/09/07 07:24:03;;;;;;;4.37;3.55;;;18.70;54.10;;;;;;1901172;75;20957;-65
2022/09/07 07:26:32;;;;;;;5.15;3.20;;;18.70;53.50;;;;;;1901309;75;21485;-65
2022/09/07 07:29:01;;;;;;;6.00;2.77;;;18.80;52.00;;;;;;1901189;75;20968;-65
2022/09/07 07:31:32;;;;;;;5.67;2.98;;;18.70;51.20;;;;;;1901212;75;21062;-65
2022/09/07 07:34:02;;;;;;;4.75;3.00;;;18.70;50.40;;;;;;1901270;75;20977;-65
2022/09/07 07:36:33;;;;;;;2.72;2.40;;;18.80;50.60;;;;;;1901326;75;21043;-65
2022/09/07 07:39:03;;;;;;;3.60;2.10;;;18.80;51.20;;;;;;1901384;75;20989;-65
2022/09/07 07:41:32;;;;;;;4.40;3.20;;;18.90;51.50;;;;;;1901416;75;21469;-65
2022/09/07 07:44:02;;;;;;;3.30;2.15;;;18.90;50.40;;;;;;1901317;75;21050;-65
2022/09/07 07:46:31;;;;;;;7.72;2.55;;;18.90;50.10;;;;;;1901289;75;21020;-65
2022/09/07 07:49:00;;;;;;;3.33;2.70;;;18.90;50.10;;;;;;1901337;75;21062;-65
2022/09/07 07:51:28;;;;;;;4.25;2.80;;;18.90;50.60;;;;;;1901383;75;21004;-66
2022/09/07 07:53:57;;;;;;;5.80;2.50;;;18.90;50.40;;;;;;1894773;75;21005;-65
2022/09/07 07:56:26;;;;;;;5.85;3.12;;;19.00;50.40;;;;;;1892013;76;21008;-65
2022/09/07 07:58:55;;;;;;;3.33;3.02;;;19.00;51.20;;;;;;1891984;76;21094;-65
2022/09/07 08:01:24;;;;;;;7.40;2.77;;;19.10;51.50;;;;;;1892001;76;20985;-65
2022/09/07 08:03:53;;;;;;;5.17;2.27;;;19.20;51.20;;;;;;1892006;76;21043;-65
2022/09/07 08:06:22;;;;;;;6.97;2.72;;;19.30;51.10;;;;;;1892024;76;21032;-65
2022/09/07 08:08:51;;;;;;;4.87;2.58;;;19.40;51.40;;;;;;1892135;76;21416;-65
2022/09/07 08:11:22;;;;;;;2.92;2.40;;;19.50;51.10;;;;;;1891973;76;20981;-65
2022/09/07 08:13:51;;;;;;;2.58;2.05;;;19.60;50.90;;;;;;1892151;76;20985;-65
2022/09/07 08:16:20;;;;;;;3.12;2.00;;;19.60;49.90;;;;;;1892029;76;21348;-65
2022/09/07 08:18:49;;;;;;;3.12;1.65;;;19.70;49.60;;;;;;1891974;76;21491;-65
2022/09/07 08:21:18;;;;;;;2.98;2.08;;;19.70;49.50;;;;;;1892030;76;21051;-65
2022/09/07 08:23:47;;;;;;;4.70;2.20;;;19.80;47.90;;;;;;1891985;76;21055;-66
2022/09/07 08:26:16;;;;;;;3.45;1.70;;;19.70;48.50;;;;;;1891980;76;21485;-65
2022/09/07 08:28:45;;;;;;;9.10;1.90;;;19.80;48.30;;;;;;1892070;76;21032;-66
2022/09/07 08:31:17;;;;;;;9.15;4.53;;;19.80;47.90;;;;;;1891869;76;21447;-65
2022/09/07 08:33:46;;;;;;;3.83;2.58;;;19.90;47.70;;;;;;1891952;76;20977;-65
2022/09/07 08:36:18;;;;;;;2.22;1.65;;;19.90;46.80;;;;;;1891922;76;20989;-65
2022/09/07 08:38:48;;;;;;;2.30;2.10;;;20.00;47.40;;;;;;1891921;76;20969;-65
2022/09/07 08:41:29;;;;;;;4.10;2.00;;;20.00;47.30;;;;;;1891901;76;21039;-65
2022/09/07 08:44:05;;;;;;;4.05;2.17;;;20.00;47.30;;;;;;1868262;76;21455;-65
2022/09/07 08:46:49;;;;;;;4.47;2.10;;;20.00;46.40;;;;;;1892083;76;21065;-65
2022/09/07 08:49:22;;;;;;;5.70;1.90;;;19.80;46.30;;;;;;1852197;76;21448;-65
2022/09/07 08:51:57;;;;;;;3.40;1.98;;;19.80;45.80;;;;;;1867326;76;21036;-65
2022/09/07 08:54:26;;;;;;;4.60;2.30;;;19.80;46.30;;;;;;1897924;75;21116;-65
2022/09/07 08:56:58;;;;;;;1.55;1.42;;;19.90;47.00;;;;;;1901360;75;21121;-65
2022/09/07 08:59:44;;;;;;;2.62;2.08;;;20.00;45.80;;;;;;1901204;75;20976;-65
2022/09/07 09:02:16;;;;;;;1.42;1.25;;;20.00;46.20;;;;;;1900957;75;20993;-65
2022/09/07 09:04:45;;;;;;;4.65;2.10;;;20.10;46.00;;;;;;1901374;75;20972;-65
2022/09/07 09:07:38;;;;;;;2.90;1.62;;;20.20;45.70;;;;;;1901421;75;20981;-65
2022/09/07 09:10:26;;;;;;;2.67;1.70;;;20.20;45.10;;;;;;1901303;74;20989;-65
2022/09/07 09:13:16;;;;;;;2.95;2.12;;;20.20;45.20;;;;;;1901260;75;21051;-65
2022/09/07 09:15:56;;;;;;;7.22;2.80;;;20.20;46.20;;;;;;1901419;75;20949;-65
2022/09/07 09:18:40;;;;;;;1.50;1.30;;;20.30;46.10;;;;;;1901374;75;20953;-65
2022/09/07 09:21:12;;;;;;;2.33;1.60;;;20.40;45.70;;;;;;1900236;75;20985;-65
2022/09/07 09:23:43;;;;;;;3.85;2.05;;;20.40;45.40;;;;;;1900224;75;20961;-65
2022/09/07 09:26:20;;;;;;;2.67;1.85;;;20.60;45.60;;;;;;1901298;75;21000;-65
2022/09/07 09:28:49;;;;;;;5.20;2.05;;;20.60;44.90;;;;;;1901315;75;21419;-65
2022/09/07 09:31:20;;;;;;;4.17;2.80;;;20.50;44.20;;;;;;1901293;75;20980;-65
2022/09/07 09:34:07;;;;;;;5.65;1.55;;;20.30;44.80;;;;;;1901212;74;21001;-65
2022/09/07 09:36:41;;;;;;;4.33;1.90;;;20.30;45.10;;;;;;1841696;75;20997;-65
2022/09/07 09:39:33;;;;;;;2.52;1.80;;;20.30;45.00;;;;;;1901505;75;21517;-65
2022/09/07 09:42:26;;;;;;;5.97;2.50;;;20.50;45.10;;;;;;1900240;75;21009;-65
2022/09/07 09:44:58;;;;;;;5.58;2.20;;;20.60;45.10;;;;;;1901358;75;21537;-65
2022/09/07 09:47:32;;;;;;;2.58;1.77;;;20.70;45.00;;;;;;1900679;75;21000;-65
2022/09/07 09:50:02;;;;;;;;;;;20.80;43.80;;;;;;1904161;75;20981;-65
2022/09/07 09:52:33;;;;;;;2.98;1.92;;;20.60;41.70;;;;;;1900201;75;20096;-65
2022/09/07 09:55:05;;;;;;;3.17;2.00;;;20.40;43.40;;;;;;1894900;75;20997;-65
2022/09/07 09:57:57;;;;;;;6.33;2.20;;;20.20;44.20;;;;;;1891995;76;21005;-64
2022/09/07 10:00:26;;;;;;;2.67;2.17;;;20.20;44.40;;;;;;1892013;76;21055;-64
2022/09/07 10:03:03;;;;;;;4.33;2.45;;;20.30;44.80;;;;;;1891897;76;21420;-64
2022/09/07 10:05:38;;;;;;;6.95;1.98;;;20.50;44.80;;;;;;1891958;76;20993;-65
2022/09/07 10:08:16;;;;;;;11.18;1.98;;;20.60;44.70;;;;;;1892134;76;20990;-65
2022/09/07 10:10:59;;;;;;;6.28;3.12;;;20.70;44.20;;;;;;1891855;76;21118;-65
2022/09/07 10:13:40;;;;;;;3.80;2.12;;;20.60;43.90;;;;;;1891967;76;20966;-65
2022/09/07 10:16:14;;;;;;;5.00;2.05;;;20.50;44.20;;;;;;1891331;73;21055;-65
2022/09/07 10:18:43;;;;;;;3.72;2.30;;;20.50;44.10;;;;;;1891052;76;20989;-65
2022/09/07 10:21:29;;;;;;;7.22;2.30;;;20.40;44.20;;;;;;1889438;76;21505;-65
2022/09/07 10:24:01;;;;;;;4.70;2.10;;;20.30;44.20;;;;;;1891908;76;21017;-65
2022/09/07 10:26:37;;;;;;;5.47;2.30;;;20.30;44.30;;;;;;1889280;73;21063;-65
2022/09/07 10:29:12;;;;;;;10.88;3.50;;;20.40;44.70;;;;;;1891946;76;21489;-64
2022/09/07 10:31:52;;;;;;;5.78;2.10;;;20.50;44.20;;;;;;1892027;76;20985;-64
2022/09/07 10:34:30;;;;;;;2.95;1.92;;;20.70;43.90;;;;;;1891908;76;21498;-65
2022/09/07 10:37:07;;;;;;;6.25;2.37;;;20.80;43.40;;;;;;1891488;73;20977;-65
2022/09/07 10:39:39;;;;;;;5.15;2.42;;;20.90;43.70;;;;;;1890345;76;21059;-64
2022/09/07 10:42:11;;;;;;;4.60;2.15;;;21.00;43.40;;;;;;1892087;76;20981;-64
2022/09/07 10:44:48;;;;;;;5.47;2.22;;;21.10;43.30;;;;;;1891003;76;21066;-64
2022/09/07 10:47:26;;;;;;;4.95;2.35;;;21.20;43.20;;;;;;1891872;76;20977;-65
2022/09/07 10:50:06;;;;;;;2.77;2.45;;;21.30;42.50;;;;;;1891547;75;21130;-65
2022/09/07 10:52:53;;;;;;;4.75;2.10;;;21.30;42.70;;;;;;1892006;76;21525;-64
2022/09/07 10:55:34;;;;;;;3.85;2.20;;;21.40;42.60;;;;;;1889928;75;21029;-64
2022/09/07 10:58:15;;;;;;;8.85;2.17;;;21.40;42.80;;;;;;1892022;76;21059;-64
2022/09/07 11:01:05;;;;;;;5.30;2.77;;;21.40;42.60;;;;;;1890507;76;21025;-64
2022/09/07 11:03:49;;;;;;;4.30;2.15;;;21.40;42.40;;;;;;1891947;76;20981;-64
2022/09/07 11:06:23;;;;;;;3.55;2.00;;;21.40;41.90;;;;;;1891576;76;21067;-64
2022/09/07 11:09:28;;;;;;;3.42;2.00;;;21.40;41.90;;;;;;1892026;76;20993;-64
2022/09/07 11:12:04;;;;;;;5.33;2.10;;;21.40;42.30;;;;;;1891962;76;20970;-64
2022/09/07 11:14:44;;;;;;;4.83;2.30;;;21.40;42.20;;;;;;1892064;76;20961;-64
2022/09/07 11:17:19;;;;;;;3.60;2.37;;;21.40;42.30;;;;;;1891025;76;21415;-64
2022/09/07 11:19:50;;;;;;;2.47;2.00;;;21.50;42.00;;;;;;1892182;76;20961;-64
2022/09/07 11:22:43;;;;;;;4.08;2.20;;;21.60;41.80;;;;;;1891966;76;20946;-65
2022/09/07 11:25:23;;;;;;;9.35;2.33;;;21.60;41.80;;;;;;1892078;76;21047;-64
2022/09/07 11:27:57;;;;;;;4.78;2.30;;;21.70;40.40;;;;;;1892055;76;21024;-64
2022/09/07 11:30:32;;;;;;;3.42;1.85;;;21.50;40.90;;;;;;1892179;76;20993;-64
2022/09/07 11:33:12;;;;;;;4.65;2.42;;;21.40;41.30;;;;;;1892232;76;21420;-63
2022/09/07 11:35:53;;;;;;;7.50;2.10;;;21.40;41.70;;;;;;1892258;76;21056;-64
2022/09/07 11:38:24;;;;;;;3.47;2.42;;;21.40;42.20;;;;;;1892240;76;21446;-63
2022/09/07 11:40:59;;;;;;;4.12;2.05;;;21.30;42.00;;;;;;1891800;75;21000;-63
2022/09/07 11:43:33;;;;;;;3.08;2.15;;;21.30;41.70;;;;;;1892322;76;21396;-63
2022/09/07 11:46:21;;;;;;;3.10;2.30;;;21.30;41.90;;;;;;1892296;76;21510;-63
2022/09/07 11:48:57;;;;;;;5.28;2.02;;;21.40;41.70;;;;;;1892066;76;21043;-63
2022/09/07 11:51:44;;;;;;;6.10;2.20;;;21.50;40.50;;;;;;1892105;76;20993;-63
2022/09/07 11:54:18;;;;;;;14.45;2.47;;;21.50;40.10;;;;;;1826606;76;21067;-63
2022/09/07 11:56:50;;;;;;;6.10;2.20;;;21.60;40.70;;;;;;1901092;74;21024;-64
2022/09/07 11:59:27;;;;;;;6.72;2.50;;;21.70;40.60;;;;;;1901343;75;21086;-63
2022/09/07 12:02:11;;;;;;;3.60;2.00;;;21.70;40.50;;;;;;1900923;75;20988;-63
2022/09/07 12:05:13;;;;;;;5.67;1.90;;;21.50;40.80;;;;;;1901466;75;20976;-64
2022/09/07 12:07:50;;;;;;;2.80;2.08;;;21.40;39.90;;;;;;1900054;75;20985;-63
2022/09/07 12:10:38;;;;;;;2.85;2.55;;;21.20;40.80;;;;;;1898664;75;20969;-63
2022/09/07 12:13:27;;;;;;;4.87;2.00;;;21.10;41.50;;;;;;1901335;75;21071;-64
2022/09/07 12:16:21;;;;;;;5.70;2.70;;;21.20;41.70;;;;;;1901327;75;20984;-64
2022/09/07 12:19:04;;;;;;;3.25;2.20;;;21.40;40.90;;;;;;1901394;75;20957;-64
2022/09/07 12:21:45;;;;;;;4.47;1.95;;;21.50;41.40;;;;;;1900458;75;21516;-64
2022/09/07 12:24:33;;;;;;;3.12;2.35;;;21.50;40.40;;;;;;1898930;75;20989;-63
2022/09/07 12:27:04;;;;;;;3.33;2.17;;;21.50;41.00;;;;;;1901315;75;20988;-63
2022/09/07 12:29:33;;;;;;;7.80;2.30;;;21.30;41.00;;;;;;1873633;75;21063;-63
2022/09/07 12:32:04;;;;;;;3.40;1.85;;;21.20;41.20;;;;;;1901300;75;20993;-64
2022/09/07 12:34:36;;;;;;;3.40;2.00;;;21.20;41.30;;;;;;1901413;75;21004;-64
2022/09/07 12:37:10;;;;;;;2.47;1.95;;;21.30;41.20;;;;;;1901358;75;21013;-64
2022/09/07 12:39:42;;;;;;;3.05;2.40;;;21.30;41.40;;;;;;1901581;75;21031;-64
2022/09/07 12:42:15;;;;;;;2.70;2.10;;;21.40;41.40;;;;;;1901085;75;20973;-63
2022/09/07 12:44:44;;;;;;;3.65;1.77;;;21.40;40.70;;;;;;1901536;75;21005;-64
2022/09/07 12:47:16;;;;;;;7.12;1.80;;;21.50;40.70;;;;;;1901277;75;21118;-64
2022/09/07 12:49:56;;;;;;;3.17;2.00;;;21.60;40.30;;;;;;1901339;75;20988;-64
2022/09/07 12:52:48;;;;;;;6.50;2.20;;;21.60;40.70;;;;;;1900434;75;21431;-64
2022/09/07 12:55:25;;;;;;;4.55;1.92;;;21.60;40.40;;;;;;1901342;75;20980;-63
2022/09/07 12:58:25;;;;;;;4.17;1.67;;;21.70;40.40;;;;;;1900083;75;21024;-64
2022/09/07 13:01:25;;;;;;;2.15;1.95;;;21.70;40.10;;;;;;1900891;75;20973;-63
2022/09/07 13:04:15;;;;;;;8.50;2.15;;;21.70;39.40;;;;;;1900137;75;21090;-64
2022/09/07 13:07:01;;;;;;;4.92;2.17;;;21.60;39.40;;;;;;1901382;75;20977;-64
2022/09/07 13:09:33;;;;;;;2.75;2.22;;;21.60;40.10;;;;;;1901396;75;21035;-64
2022/09/07 13:12:05;;;;;;;3.37;1.70;;;21.60;40.30;;;;;;1901394;75;21059;-64
2022/09/07 13:14:36;;;;;;;3.33;2.60;;;21.60;40.50;;;;;;1897381;75;20976;-64
2022/09/07 13:17:28;;;;;;;1.95;1.70;;;21.60;40.60;;;;;;1901432;75;21059;-64